sensor_id;sensor_type;location;lat;lon;timestamp;temperature;humidity
11083;DHT22;5595;50.186;8.468;2023-04-22T00:00:25;9.60;99.90
11083;DHT22;5595;50.186;8.468;2023-04-22T00:02:54;9.60;99.90
11083;DHT22;5595;50.186;8.468;2023-04-22T00:05:22;9.70;99.90
11083;DHT22;5595;50.186;8.468;2023-04-22T00:07:48;9.60;99.90
11083;DHT22;5595;50.186;8.468;2023-04-22T00:10:15;9.60;99.90
11083;DHT22;5595;50.186;8.468;2023-04-22T00:12:42;9.60;99.90
11083;DHT22;5595;50.186;8.468;2023-04-22T00:15:10;9.60;99.90
11083;DHT22;5595;50.186;8.468;2023-04-22T00:17:37;9.60;99.90
11083;DHT22;5595;50.186;8.468;2023-04-22T00:20:07;9.60;99.90
11083;DHT22;5595;50.186;8.468;2023-04-22T00:22:35;9.60;99.90
11083;DHT22;5595;50.186;8.468;2023-04-22T00:25:03;9.60;99.90
11083;DHT22;5595;50.186;8.468;2023-04-22T00:27:30;9.60;99.90
11083;DHT22;5595;50.186;8.468;2023-04-22T00:29:56;9.60;99.90
11083;DHT22;5595;50.186;8.468;2023-04-22T00:32:23;9.60;99.90
11083;DHT22;5595;50.186;8.468;2023-04-22T00:34:51;9.60;99.90
11083;DHT22;5595;50.186;8.468;2023-04-22T00:37:19;9.70;99.90
11083;DHT22;5595;50.186;8.468;2023-04-22T00:39:46;9.70;99.90
11083;DHT22;5595;50.186;8.468;2023-04-22T00:42:15;9.70;99.90
11083;DHT22;5595;50.186;8.468;2023-04-22T00:44:43;9.70;99.90
11083;DHT22;5595;50.186;8.468;2023-04-22T00:47:12;9.70;99.90
11083;DHT22;5595;50.186;8.468;2023-04-22T00:49:39;9.70;99.90
11083;DHT22;5595;50.186;8.468;2023-04-22T00:52:06;9.60;99.90
11083;DHT22;5595;50.186;8.468;2023-04-22T00:54:34;9.60;99.90
11083;DHT22;5595;50.186;8.468;2023-04-22T00:57:02;9.60;99.90
11083;DHT22;5595;50.186;8.468;2023-04-22T00:59:29;9.60;99.90
11083;DHT22;5595;50.186;8.468;2023-04-22T01:01:57;9.60;99.90
11083;DHT22;5595;50.186;8.468;2023-04-22T01:04:24;9.70;99.90
11083;DHT22;5595;50.186;8.468;2023-04-22T01:06:51;9.70;99.90
11083;DHT22;5595;50.186;8.468;2023-04-22T01:09:19;9.70;99.90
11083;DHT22;5595;50.186;8.468;2023-04-22T01:11:47;9.70;99.90
11083;DHT22;5595;50.186;8.468;2023-04-22T01:14:14;9.70;99.90
11083;DHT22;5595;50.186;8.468;2023-04-22T01:16:41;9.80;99.90
11083;DHT22;5595;50.186;8.468;2023-04-22T01:19:10;9.80;99.90
11083;DHT22;5595;50.186;8.468;2023-04-22T01:21:38;9.80;99.90
11083;DHT22;5595;50.186;8.468;2023-04-22T01:24:07;9.80;99.90
11083;DHT22;5595;50.186;8.468;2023-04-22T01:26:35;9.90;99.90
11083;DHT22;5595;50.186;8.468;2023-04-22T01:29:03;9.90;99.90
11083;DHT22;5595;50.186;8.468;2023-04-22T01:31:30;9.90;99.90
11083;DHT22;5595;50.186;8.468;2023-04-22T01:33:58;10.00;99.90
11083;DHT22;5595;50.186;8.468;2023-04-22T01:36:25;9.80;99.90
11083;DHT22;5595;50.186;8.468;2023-04-22T01:38:53;9.80;99.90
11083;DHT22;5595;50.186;8.468;2023-04-22T01:41:21;9.80;99.90
11083;DHT22;5595;50.186;8.468;2023-04-22T01:43:49;9.80;99.90
11083;DHT22;5595;50.186;8.468;2023-04-22T01:46:16;9.80;99.90
11083;DHT22;5595;50.186;8.468;2023-04-22T01:48:43;9.80;99.90
11083;DHT22;5595;50.186;8.468;2023-04-22T01:51:15;9.80;99.90
11083;DHT22;5595;50.186;8.468;2023-04-22T01:53:42;9.80;99.90
11083;DHT22;5595;50.186;8.468;2023-04-22T01:56:09;9.80;99.90
11083;DHT22;5595;50.186;8.468;2023-04-22T01:58:38;9.80;99.90
11083;DHT22;5595;50.186;8.468;2023-04-22T02:01:05;9.90;99.90
11083;DHT22;5595;50.186;8.468;2023-04-22T02:03:32;9.80;99.90
11083;DHT22;5595;50.186;8.468;2023-04-22T02:05:59;9.90;99.90
11083;DHT22;5595;50.186;8.468;2023-04-22T02:08:26;9.90;99.90
11083;DHT22;5595;50.186;8.468;2023-04-22T02:10:53;9.90;99.90
11083;DHT22;5595;50.186;8.468;2023-04-22T02:13:20;10.00;99.90
11083;DHT22;5595;50.186;8.468;2023-04-22T02:15:48;9.90;99.90
11083;DHT22;5595;50.186;8.468;2023-04-22T02:18:15;9.90;99.90
11083;DHT22;5595;50.186;8.468;2023-04-22T02:20:42;9.90;99.90
11083;DHT22;5595;50.186;8.468;2023-04-22T02:23:10;9.80;99.90
11083;DHT22;5595;50.186;8.468;2023-04-22T02:25:37;9.80;99.90
11083;DHT22;5595;50.186;8.468;2023-04-22T02:28:04;9.80;99.90
11083;DHT22;5595;50.186;8.468;2023-04-22T02:30:31;9.70;99.90
11083;DHT22;5595;50.186;8.468;2023-04-22T02:32:59;9.70;99.90
11083;DHT22;5595;50.186;8.468;2023-04-22T02:35:27;9.80;99.90
11083;DHT22;5595;50.186;8.468;2023-04-22T02:37:54;9.90;99.90
11083;DHT22;5595;50.186;8.468;2023-04-22T02:40:21;9.90;99.90
11083;DHT22;5595;50.186;8.468;2023-04-22T02:42:48;9.90;99.90
11083;DHT22;5595;50.186;8.468;2023-04-22T02:45:15;9.80;99.90
11083;DHT22;5595;50.186;8.468;2023-04-22T02:47:43;9.90;99.90
11083;DHT22;5595;50.186;8.468;2023-04-22T02:50:11;9.90;99.90
11083;DHT22;5595;50.186;8.468;2023-04-22T02:52:38;9.90;99.90
11083;DHT22;5595;50.186;8.468;2023-04-22T02:55:06;10.00;99.90
11083;DHT22;5595;50.186;8.468;2023-04-22T02:57:33;9.80;99.90
11083;DHT22;5595;50.186;8.468;2023-04-22T03:00:00;9.90;99.90
11083;DHT22;5595;50.186;8.468;2023-04-22T03:02:28;9.90;99.90
11083;DHT22;5595;50.186;8.468;2023-04-22T03:04:55;9.80;99.90
11083;DHT22;5595;50.186;8.468;2023-04-22T03:07:24;9.90;99.90
11083;DHT22;5595;50.186;8.468;2023-04-22T03:09:51;9.90;99.90
11083;DHT22;5595;50.186;8.468;2023-04-22T03:12:20;9.90;99.90
11083;DHT22;5595;50.186;8.468;2023-04-22T03:14:47;9.80;99.90
11083;DHT22;5595;50.186;8.468;2023-04-22T03:17:13;9.80;99.90
11083;DHT22;5595;50.186;8.468;2023-04-22T03:19:40;9.90;99.90
11083;DHT22;5595;50.186;8.468;2023-04-22T03:22:07;9.90;99.90
11083;DHT22;5595;50.186;8.468;2023-04-22T03:24:35;9.90;99.90
11083;DHT22;5595;50.186;8.468;2023-04-22T03:27:02;9.90;99.90
11083;DHT22;5595;50.186;8.468;2023-04-22T03:29:29;9.80;99.90
11083;DHT22;5595;50.186;8.468;2023-04-22T03:31:56;9.80;99.90
11083;DHT22;5595;50.186;8.468;2023-04-22T03:34:23;9.80;99.90
11083;DHT22;5595;50.186;8.468;2023-04-22T03:36:50;9.90;99.90
11083;DHT22;5595;50.186;8.468;2023-04-22T03:39:17;9.80;99.90
11083;DHT22;5595;50.186;8.468;2023-04-22T03:41:45;9.70;99.90
11083;DHT22;5595;50.186;8.468;2023-04-22T03:44:12;9.70;99.90
11083;DHT22;5595;50.186;8.468;2023-04-22T03:46:38;9.80;99.90
11083;DHT22;5595;50.186;8.468;2023-04-22T03:49:05;9.70;99.90
11083;DHT22;5595;50.186;8.468;2023-04-22T03:51:32;9.90;99.90
11083;DHT22;5595;50.186;8.468;2023-04-22T03:53:59;9.40;99.90
11083;DHT22;5595;50.186;8.468;2023-04-22T03:56:26;9.60;99.90
11083;DHT22;5595;50.186;8.468;2023-04-22T03:58:54;9.50;99.90
11083;DHT22;5595;50.186;8.468;2023-04-22T04:01:21;9.60;99.90
11083;DHT22;5595;50.186;8.468;2023-04-22T04:03:48;9.50;99.90
11083;DHT22;5595;50.186;8.468;2023-04-22T04:06:15;9.50;99.90
11083;DHT22;5595;50.186;8.468;2023-04-22T04:08:42;9.50;99.90
11083;DHT22;5595;50.186;8.468;2023-04-22T04:11:09;9.50;99.90
11083;DHT22;5595;50.186;8.468;2023-04-22T04:13:36;9.40;99.90
11083;DHT22;5595;50.186;8.468;2023-04-22T04:16:05;9.30;99.90
11083;DHT22;5595;50.186;8.468;2023-04-22T04:18:32;9.40;99.90
11083;DHT22;5595;50.186;8.468;2023-04-22T04:20:58;9.30;99.90
11083;DHT22;5595;50.186;8.468;2023-04-22T04:23:25;9.30;99.90
11083;DHT22;5595;50.186;8.468;2023-04-22T04:25:52;9.40;99.90
11083;DHT22;5595;50.186;8.468;2023-04-22T04:28:20;9.40;99.90
11083;DHT22;5595;50.186;8.468;2023-04-22T04:30:47;9.40;99.90
11083;DHT22;5595;50.186;8.468;2023-04-22T04:33:15;9.50;99.90
11083;DHT22;5595;50.186;8.468;2023-04-22T04:35:42;9.60;99.90
11083;DHT22;5595;50.186;8.468;2023-04-22T04:38:09;9.70;99.90
11083;DHT22;5595;50.186;8.468;2023-04-22T04:40:37;9.80;99.90
11083;DHT22;5595;50.186;8.468;2023-04-22T04:43:04;9.80;99.90
11083;DHT22;5595;50.186;8.468;2023-04-22T04:45:33;9.80;99.90
11083;DHT22;5595;50.186;8.468;2023-04-22T04:48:01;10.00;99.90
11083;DHT22;5595;50.186;8.468;2023-04-22T04:50:29;10.10;99.90
11083;DHT22;5595;50.186;8.468;2023-04-22T04:52:56;10.20;99.90
11083;DHT22;5595;50.186;8.468;2023-04-22T04:55:23;10.20;99.90
11083;DHT22;5595;50.186;8.468;2023-04-22T04:57:50;10.30;99.90
11083;DHT22;5595;50.186;8.468;2023-04-22T05:00:17;10.30;99.90
11083;DHT22;5595;50.186;8.468;2023-04-22T05:02:44;10.30;99.90
11083;DHT22;5595;50.186;8.468;2023-04-22T05:05:11;10.40;99.90
11083;DHT22;5595;50.186;8.468;2023-04-22T05:07:39;10.50;99.90
11083;DHT22;5595;50.186;8.468;2023-04-22T05:10:07;10.70;99.90
11083;DHT22;5595;50.186;8.468;2023-04-22T05:12:34;10.80;99.90
11083;DHT22;5595;50.186;8.468;2023-04-22T05:15:01;11.00;99.90
11083;DHT22;5595;50.186;8.468;2023-04-22T05:17:28;11.00;99.90
11083;DHT22;5595;50.186;8.468;2023-04-22T05:19:55;11.10;99.90
11083;DHT22;5595;50.186;8.468;2023-04-22T05:22:22;11.10;99.90
11083;DHT22;5595;50.186;8.468;2023-04-22T05:24:50;11.00;99.90
11083;DHT22;5595;50.186;8.468;2023-04-22T05:27:17;11.00;99.90
11083;DHT22;5595;50.186;8.468;2023-04-22T05:29:44;10.90;99.90
11083;DHT22;5595;50.186;8.468;2023-04-22T05:32:11;11.00;99.90
11083;DHT22;5595;50.186;8.468;2023-04-22T05:34:37;10.90;99.90
11083;DHT22;5595;50.186;8.468;2023-04-22T05:37:05;10.90;99.90
11083;DHT22;5595;50.186;8.468;2023-04-22T05:39:32;10.80;99.90
11083;DHT22;5595;50.186;8.468;2023-04-22T05:42:01;11.00;99.90
11083;DHT22;5595;50.186;8.468;2023-04-22T05:44:27;10.90;99.90
11083;DHT22;5595;50.186;8.468;2023-04-22T05:46:54;10.90;99.90
11083;DHT22;5595;50.186;8.468;2023-04-22T05:49:21;10.90;99.90
11083;DHT22;5595;50.186;8.468;2023-04-22T05:51:49;10.80;99.90
11083;DHT22;5595;50.186;8.468;2023-04-22T05:54:16;10.80;99.90
11083;DHT22;5595;50.186;8.468;2023-04-22T05:56:43;10.90;99.90
11083;DHT22;5595;50.186;8.468;2023-04-22T05:59:11;11.10;99.90
11083;DHT22;5595;50.186;8.468;2023-04-22T06:01:38;11.10;99.90
11083;DHT22;5595;50.186;8.468;2023-04-22T06:04:05;11.30;99.90
11083;DHT22;5595;50.186;8.468;2023-04-22T06:06:32;11.30;99.90
11083;DHT22;5595;50.186;8.468;2023-04-22T06:08:59;11.40;99.90
11083;DHT22;5595;50.186;8.468;2023-04-22T06:11:25;11.50;99.90
11083;DHT22;5595;50.186;8.468;2023-04-22T06:13:52;11.50;99.90
11083;DHT22;5595;50.186;8.468;2023-04-22T06:16:21;11.70;99.90
11083;DHT22;5595;50.186;8.468;2023-04-22T06:18:48;11.70;99.90
11083;DHT22;5595;50.186;8.468;2023-04-22T06:21:14;11.80;99.90
11083;DHT22;5595;50.186;8.468;2023-04-22T06:23:41;11.70;99.90
11083;DHT22;5595;50.186;8.468;2023-04-22T06:26:08;11.80;99.90
11083;DHT22;5595;50.186;8.468;2023-04-22T06:28:35;11.70;99.90
11083;DHT22;5595;50.186;8.468;2023-04-22T06:31:02;11.80;99.90
11083;DHT22;5595;50.186;8.468;2023-04-22T06:33:30;11.90;99.90
11083;DHT22;5595;50.186;8.468;2023-04-22T06:35:58;12.10;99.90
11083;DHT22;5595;50.186;8.468;2023-04-22T06:38:24;12.20;99.90
11083;DHT22;5595;50.186;8.468;2023-04-22T06:40:54;12.30;99.90
11083;DHT22;5595;50.186;8.468;2023-04-22T06:43:21;12.40;99.90
11083;DHT22;5595;50.186;8.468;2023-04-22T06:45:48;12.60;99.90
11083;DHT22;5595;50.186;8.468;2023-04-22T06:48:14;12.80;99.90
11083;DHT22;5595;50.186;8.468;2023-04-22T06:50:43;13.10;99.90
11083;DHT22;5595;50.186;8.468;2023-04-22T06:53:09;13.20;99.90
11083;DHT22;5595;50.186;8.468;2023-04-22T06:55:36;13.40;99.90
11083;DHT22;5595;50.186;8.468;2023-04-22T06:58:03;13.40;99.90
11083;DHT22;5595;50.186;8.468;2023-04-22T07:00:30;13.50;99.90
11083;DHT22;5595;50.186;8.468;2023-04-22T07:02:57;13.60;99.90
11083;DHT22;5595;50.186;8.468;2023-04-22T07:05:24;13.70;99.90
11083;DHT22;5595;50.186;8.468;2023-04-22T07:07:52;13.80;99.90
11083;DHT22;5595;50.186;8.468;2023-04-22T07:10:19;13.90;99.90
11083;DHT22;5595;50.186;8.468;2023-04-22T07:12:46;14.00;99.90
11083;DHT22;5595;50.186;8.468;2023-04-22T07:15:13;14.10;99.90
11083;DHT22;5595;50.186;8.468;2023-04-22T07:17:39;14.20;99.90
11083;DHT22;5595;50.186;8.468;2023-04-22T07:20:07;14.30;99.90
11083;DHT22;5595;50.186;8.468;2023-04-22T07:22:34;14.30;99.90
11083;DHT22;5595;50.186;8.468;2023-04-22T07:25:02;14.50;99.90
11083;DHT22;5595;50.186;8.468;2023-04-22T07:27:31;14.70;99.90
11083;DHT22;5595;50.186;8.468;2023-04-22T07:29:58;14.90;99.90
11083;DHT22;5595;50.186;8.468;2023-04-22T07:32:25;15.00;99.90
11083;DHT22;5595;50.186;8.468;2023-04-22T07:34:52;15.30;99.90
11083;DHT22;5595;50.186;8.468;2023-04-22T07:37:20;15.50;99.90
11083;DHT22;5595;50.186;8.468;2023-04-22T07:39:47;15.70;99.90
11083;DHT22;5595;50.186;8.468;2023-04-22T07:42:16;15.80;99.90
11083;DHT22;5595;50.186;8.468;2023-04-22T07:44:42;15.90;99.90
11083;DHT22;5595;50.186;8.468;2023-04-22T07:47:09;16.00;99.90
11083;DHT22;5595;50.186;8.468;2023-04-22T07:49:36;16.30;99.90
11083;DHT22;5595;50.186;8.468;2023-04-22T07:52:03;16.40;99.90
11083;DHT22;5595;50.186;8.468;2023-04-22T07:54:30;16.40;99.90
11083;DHT22;5595;50.186;8.468;2023-04-22T07:56:56;16.40;99.90
11083;DHT22;5595;50.186;8.468;2023-04-22T07:59:25;16.50;99.90
11083;DHT22;5595;50.186;8.468;2023-04-22T08:01:52;16.60;99.90
11083;DHT22;5595;50.186;8.468;2023-04-22T08:06:46;16.80;99.90
11083;DHT22;5595;50.186;8.468;2023-04-22T08:09:13;16.90;99.90
11083;DHT22;5595;50.186;8.468;2023-04-22T08:11:40;17.00;99.90
11083;DHT22;5595;50.186;8.468;2023-04-22T08:14:07;17.10;99.90
11083;DHT22;5595;50.186;8.468;2023-04-22T08:16:36;17.30;99.90
11083;DHT22;5595;50.186;8.468;2023-04-22T08:19:03;17.20;99.90
11083;DHT22;5595;50.186;8.468;2023-04-22T08:21:30;17.30;99.90
11083;DHT22;5595;50.186;8.468;2023-04-22T08:23:57;17.20;99.90
11083;DHT22;5595;50.186;8.468;2023-04-22T08:26:24;17.10;99.90
11083;DHT22;5595;50.186;8.468;2023-04-22T08:28:51;17.20;99.90
11083;DHT22;5595;50.186;8.468;2023-04-22T08:31:18;17.30;99.90
11083;DHT22;5595;50.186;8.468;2023-04-22T08:33:46;17.30;99.90
11083;DHT22;5595;50.186;8.468;2023-04-22T08:36:15;17.40;99.90
11083;DHT22;5595;50.186;8.468;2023-04-22T08:38:42;17.50;99.90
11083;DHT22;5595;50.186;8.468;2023-04-22T08:41:09;17.40;99.90
11083;DHT22;5595;50.186;8.468;2023-04-22T08:43:35;17.60;99.90
11083;DHT22;5595;50.186;8.468;2023-04-22T08:46:02;17.60;99.90
11083;DHT22;5595;50.186;8.468;2023-04-22T08:48:31;17.60;99.90
11083;DHT22;5595;50.186;8.468;2023-04-22T08:50:59;17.40;99.90
11083;DHT22;5595;50.186;8.468;2023-04-22T08:53:26;17.50;99.90
11083;DHT22;5595;50.186;8.468;2023-04-22T08:55:55;17.40;99.90
11083;DHT22;5595;50.186;8.468;2023-04-22T08:58:22;17.50;99.90
11083;DHT22;5595;50.186;8.468;2023-04-22T09:00:50;17.60;99.90
11083;DHT22;5595;50.186;8.468;2023-04-22T09:03:17;17.80;99.90
11083;DHT22;5595;50.186;8.468;2023-04-22T09:05:45;17.90;99.90
11083;DHT22;5595;50.186;8.468;2023-04-22T09:08:14;18.00;99.90
11083;DHT22;5595;50.186;8.468;2023-04-22T09:10:41;18.20;99.90
11083;DHT22;5595;50.186;8.468;2023-04-22T09:13:09;18.30;99.90
11083;DHT22;5595;50.186;8.468;2023-04-22T09:15:36;18.50;99.90
11083;DHT22;5595;50.186;8.468;2023-04-22T09:18:03;18.50;99.90
11083;DHT22;5595;50.186;8.468;2023-04-22T09:20:31;18.60;99.90
11083;DHT22;5595;50.186;8.468;2023-04-22T09:23:01;18.50;99.90
11083;DHT22;5595;50.186;8.468;2023-04-22T09:25:32;18.80;99.90
11083;DHT22;5595;50.186;8.468;2023-04-22T09:28:00;19.00;99.90
11083;DHT22;5595;50.186;8.468;2023-04-22T09:30:29;19.10;99.90
11083;DHT22;5595;50.186;8.468;2023-04-22T09:32:57;19.20;99.90
11083;DHT22;5595;50.186;8.468;2023-04-22T09:35:26;19.30;99.90
11083;DHT22;5595;50.186;8.468;2023-04-22T09:37:53;19.40;99.90
11083;DHT22;5595;50.186;8.468;2023-04-22T09:40:20;19.40;99.90
11083;DHT22;5595;50.186;8.468;2023-04-22T09:42:50;19.40;99.90
11083;DHT22;5595;50.186;8.468;2023-04-22T09:45:28;19.40;99.90
11083;DHT22;5595;50.186;8.468;2023-04-22T09:47:55;19.50;99.90
11083;DHT22;5595;50.186;8.468;2023-04-22T09:50:24;19.50;99.90
11083;DHT22;5595;50.186;8.468;2023-04-22T09:52:57;19.70;99.90
11083;DHT22;5595;50.186;8.468;2023-04-22T09:55:25;19.80;99.90
11083;DHT22;5595;50.186;8.468;2023-04-22T09:57:55;19.80;99.90
11083;DHT22;5595;50.186;8.468;2023-04-22T10:00:24;19.90;99.90
11083;DHT22;5595;50.186;8.468;2023-04-22T10:02:53;19.90;99.90
11083;DHT22;5595;50.186;8.468;2023-04-22T10:05:19;20.00;99.90
11083;DHT22;5595;50.186;8.468;2023-04-22T10:07:47;20.20;99.90
11083;DHT22;5595;50.186;8.468;2023-04-22T10:10:14;20.40;99.90
11083;DHT22;5595;50.186;8.468;2023-04-22T10:12:40;20.60;99.90
11083;DHT22;5595;50.186;8.468;2023-04-22T10:15:10;20.70;99.90
11083;DHT22;5595;50.186;8.468;2023-04-22T10:17:38;20.80;99.90
11083;DHT22;5595;50.186;8.468;2023-04-22T10:20:08;21.00;99.90
11083;DHT22;5595;50.186;8.468;2023-04-22T10:22:40;21.20;99.90
11083;DHT22;5595;50.186;8.468;2023-04-22T10:25:12;21.20;99.90
11083;DHT22;5595;50.186;8.468;2023-04-22T10:27:39;21.30;99.90
11083;DHT22;5595;50.186;8.468;2023-04-22T10:30:09;21.50;99.90
11083;DHT22;5595;50.186;8.468;2023-04-22T10:32:37;21.50;99.90
11083;DHT22;5595;50.186;8.468;2023-04-22T10:35:10;21.60;99.90
11083;DHT22;5595;50.186;8.468;2023-04-22T10:37:40;21.60;99.90
11083;DHT22;5595;50.186;8.468;2023-04-22T10:40:09;21.60;99.90
11083;DHT22;5595;50.186;8.468;2023-04-22T10:42:39;21.70;99.90
11083;DHT22;5595;50.186;8.468;2023-04-22T10:45:08;21.80;99.90
11083;DHT22;5595;50.186;8.468;2023-04-22T10:47:38;21.70;99.90
11083;DHT22;5595;50.186;8.468;2023-04-22T10:50:15;21.90;99.90
11083;DHT22;5595;50.186;8.468;2023-04-22T10:52:45;21.80;99.90
11083;DHT22;5595;50.186;8.468;2023-04-22T10:55:12;21.70;99.90
11083;DHT22;5595;50.186;8.468;2023-04-22T10:57:41;21.50;99.90
11083;DHT22;5595;50.186;8.468;2023-04-22T11:00:39;21.30;99.90
11083;DHT22;5595;50.186;8.468;2023-04-22T11:03:17;21.30;99.90
11083;DHT22;5595;50.186;8.468;2023-04-22T11:05:45;21.30;99.90
11083;DHT22;5595;50.186;8.468;2023-04-22T11:08:14;21.20;99.90
11083;DHT22;5595;50.186;8.468;2023-04-22T11:10:46;21.00;99.90
11083;DHT22;5595;50.186;8.468;2023-04-22T11:13:13;20.80;99.90
11083;DHT22;5595;50.186;8.468;2023-04-22T11:15:42;20.60;99.90
11083;DHT22;5595;50.186;8.468;2023-04-22T11:18:15;20.40;99.90
11083;DHT22;5595;50.186;8.468;2023-04-22T11:20:44;20.20;99.90
11083;DHT22;5595;50.186;8.468;2023-04-22T11:23:16;20.10;99.90
11083;DHT22;5595;50.186;8.468;2023-04-22T11:25:44;20.10;99.90
11083;DHT22;5595;50.186;8.468;2023-04-22T11:28:10;20.00;99.90
11083;DHT22;5595;50.186;8.468;2023-04-22T11:30:37;20.00;99.90
11083;DHT22;5595;50.186;8.468;2023-04-22T11:33:04;20.20;99.90
11083;DHT22;5595;50.186;8.468;2023-04-22T11:35:33;20.40;99.90
11083;DHT22;5595;50.186;8.468;2023-04-22T11:38:02;20.60;99.90
11083;DHT22;5595;50.186;8.468;2023-04-22T11:40:32;20.70;99.90
11083;DHT22;5595;50.186;8.468;2023-04-22T11:43:01;20.80;99.90
11083;DHT22;5595;50.186;8.468;2023-04-22T11:45:31;20.90;99.90
11083;DHT22;5595;50.186;8.468;2023-04-22T11:47:59;20.90;99.90
11083;DHT22;5595;50.186;8.468;2023-04-22T11:50:30;21.00;99.90
11083;DHT22;5595;50.186;8.468;2023-04-22T11:52:58;20.90;99.90
11083;DHT22;5595;50.186;8.468;2023-04-22T11:55:28;20.90;99.90
11083;DHT22;5595;50.186;8.468;2023-04-22T11:57:57;21.00;99.90
11083;DHT22;5595;50.186;8.468;2023-04-22T12:00:28;21.10;99.90
11083;DHT22;5595;50.186;8.468;2023-04-22T12:02:57;21.20;99.90
11083;DHT22;5595;50.186;8.468;2023-04-22T12:05:35;21.30;99.90
11083;DHT22;5595;50.186;8.468;2023-04-22T12:08:05;21.30;99.90
11083;DHT22;5595;50.186;8.468;2023-04-22T12:10:37;21.40;99.90
11083;DHT22;5595;50.186;8.468;2023-04-22T12:13:05;21.40;99.90
11083;DHT22;5595;50.186;8.468;2023-04-22T12:15:41;21.40;99.60
11083;DHT22;5595;50.186;8.468;2023-04-22T12:18:08;21.40;99.30
11083;DHT22;5595;50.186;8.468;2023-04-22T12:20:37;21.50;98.90
11083;DHT22;5595;50.186;8.468;2023-04-22T12:23:16;21.60;98.40
11083;DHT22;5595;50.186;8.468;2023-04-22T12:25:44;21.60;98.70
11083;DHT22;5595;50.186;8.468;2023-04-22T12:28:11;21.70;98.00
11083;DHT22;5595;50.186;8.468;2023-04-22T12:30:38;21.50;97.80
11083;DHT22;5595;50.186;8.468;2023-04-22T12:33:05;21.40;97.50
11083;DHT22;5595;50.186;8.468;2023-04-22T12:35:32;21.30;97.70
11083;DHT22;5595;50.186;8.468;2023-04-22T12:37:59;21.30;97.90
11083;DHT22;5595;50.186;8.468;2023-04-22T12:40:26;21.50;97.90
11083;DHT22;5595;50.186;8.468;2023-04-22T12:42:55;21.80;97.70
11083;DHT22;5595;50.186;8.468;2023-04-22T12:45:21;21.90;97.40
11083;DHT22;5595;50.186;8.468;2023-04-22T12:47:49;22.10;97.20
11083;DHT22;5595;50.186;8.468;2023-04-22T12:50:18;22.10;97.40
11083;DHT22;5595;50.186;8.468;2023-04-22T12:52:45;22.00;97.00
11083;DHT22;5595;50.186;8.468;2023-04-22T12:55:12;22.00;97.00
11083;DHT22;5595;50.186;8.468;2023-04-22T12:57:39;21.90;97.10
11083;DHT22;5595;50.186;8.468;2023-04-22T13:00:08;22.00;96.80
11083;DHT22;5595;50.186;8.468;2023-04-22T13:02:39;22.00;96.70
11083;DHT22;5595;50.186;8.468;2023-04-22T13:05:07;21.90;96.40
11083;DHT22;5595;50.186;8.468;2023-04-22T13:07:34;21.80;96.50
11083;DHT22;5595;50.186;8.468;2023-04-22T13:10:01;21.70;96.40
11083;DHT22;5595;50.186;8.468;2023-04-22T13:12:28;21.50;95.80
11083;DHT22;5595;50.186;8.468;2023-04-22T13:14:55;21.50;96.40
11083;DHT22;5595;50.186;8.468;2023-04-22T13:17:23;21.40;96.60
11083;DHT22;5595;50.186;8.468;2023-04-22T13:19:50;21.50;96.90
11083;DHT22;5595;50.186;8.468;2023-04-22T13:22:17;21.40;97.10
11083;DHT22;5595;50.186;8.468;2023-04-22T13:24:44;21.50;97.20
11083;DHT22;5595;50.186;8.468;2023-04-22T13:27:11;21.60;97.30
11083;DHT22;5595;50.186;8.468;2023-04-22T13:29:39;21.50;97.30
11083;DHT22;5595;50.186;8.468;2023-04-22T13:32:06;21.30;97.30
11083;DHT22;5595;50.186;8.468;2023-04-22T13:34:35;21.00;97.00
11083;DHT22;5595;50.186;8.468;2023-04-22T13:37:02;20.60;97.20
11083;DHT22;5595;50.186;8.468;2023-04-22T13:39:28;20.50;97.50
11083;DHT22;5595;50.186;8.468;2023-04-22T13:41:56;20.20;97.80
11083;DHT22;5595;50.186;8.468;2023-04-22T13:44:23;20.10;98.10
11083;DHT22;5595;50.186;8.468;2023-04-22T13:46:49;20.00;98.10
11083;DHT22;5595;50.186;8.468;2023-04-22T13:49:16;19.80;98.10
11083;DHT22;5595;50.186;8.468;2023-04-22T13:51:44;19.70;97.90
11083;DHT22;5595;50.186;8.468;2023-04-22T13:54:11;19.60;97.90
11083;DHT22;5595;50.186;8.468;2023-04-22T13:56:38;19.50;98.10
11083;DHT22;5595;50.186;8.468;2023-04-22T13:59:05;19.40;98.30
11083;DHT22;5595;50.186;8.468;2023-04-22T14:01:32;19.30;98.10
11083;DHT22;5595;50.186;8.468;2023-04-22T14:03:59;19.20;98.20
11083;DHT22;5595;50.186;8.468;2023-04-22T14:06:29;19.10;98.00
11083;DHT22;5595;50.186;8.468;2023-04-22T14:08:58;19.10;98.10
11083;DHT22;5595;50.186;8.468;2023-04-22T14:11:25;18.90;97.60
11083;DHT22;5595;50.186;8.468;2023-04-22T14:13:52;18.90;97.10
11083;DHT22;5595;50.186;8.468;2023-04-22T14:16:20;18.90;97.00
11083;DHT22;5595;50.186;8.468;2023-04-22T14:18:47;18.70;96.80
11083;DHT22;5595;50.186;8.468;2023-04-22T14:21:14;18.70;97.00
11083;DHT22;5595;50.186;8.468;2023-04-22T14:23:41;18.60;97.00
11083;DHT22;5595;50.186;8.468;2023-04-22T14:26:11;18.60;97.10
11083;DHT22;5595;50.186;8.468;2023-04-22T14:28:39;18.50;97.30
11083;DHT22;5595;50.186;8.468;2023-04-22T14:31:07;18.50;96.80
11083;DHT22;5595;50.186;8.468;2023-04-22T14:33:34;18.40;96.70
11083;DHT22;5595;50.186;8.468;2023-04-22T14:36:01;18.40;96.90
11083;DHT22;5595;50.186;8.468;2023-04-22T14:38:28;18.30;97.00
11083;DHT22;5595;50.186;8.468;2023-04-22T14:40:55;18.30;97.30
11083;DHT22;5595;50.186;8.468;2023-04-22T14:43:24;18.30;97.40
11083;DHT22;5595;50.186;8.468;2023-04-22T14:45:51;18.20;97.40
11083;DHT22;5595;50.186;8.468;2023-04-22T14:48:17;18.20;97.50
11083;DHT22;5595;50.186;8.468;2023-04-22T14:50:46;18.10;97.70
11083;DHT22;5595;50.186;8.468;2023-04-22T14:53:15;18.10;97.90
11083;DHT22;5595;50.186;8.468;2023-04-22T14:55:42;18.20;98.30
11083;DHT22;5595;50.186;8.468;2023-04-22T14:58:09;18.20;98.40
11083;DHT22;5595;50.186;8.468;2023-04-22T15:00:37;18.30;98.60
11083;DHT22;5595;50.186;8.468;2023-04-22T15:03:04;18.30;98.70
11083;DHT22;5595;50.186;8.468;2023-04-22T15:05:31;18.40;98.80
11083;DHT22;5595;50.186;8.468;2023-04-22T15:07:58;18.40;98.90
11083;DHT22;5595;50.186;8.468;2023-04-22T15:10:25;18.60;99.10
11083;DHT22;5595;50.186;8.468;2023-04-22T15:12:52;18.90;99.20
11083;DHT22;5595;50.186;8.468;2023-04-22T15:15:19;19.00;99.20
11083;DHT22;5595;50.186;8.468;2023-04-22T15:17:48;19.20;99.20
11083;DHT22;5595;50.186;8.468;2023-04-22T15:20:15;19.40;99.10
11083;DHT22;5595;50.186;8.468;2023-04-22T15:22:43;19.60;99.20
11083;DHT22;5595;50.186;8.468;2023-04-22T15:25:10;19.90;99.20
11083;DHT22;5595;50.186;8.468;2023-04-22T15:27:37;20.20;99.10
11083;DHT22;5595;50.186;8.468;2023-04-22T15:30:06;20.40;98.80
11083;DHT22;5595;50.186;8.468;2023-04-22T15:32:33;20.50;98.40
11083;DHT22;5595;50.186;8.468;2023-04-22T15:35:01;20.20;98.20
11083;DHT22;5595;50.186;8.468;2023-04-22T15:37:28;20.00;98.20
11083;DHT22;5595;50.186;8.468;2023-04-22T15:39:55;19.80;98.00
11083;DHT22;5595;50.186;8.468;2023-04-22T15:42:22;19.60;98.00
11083;DHT22;5595;50.186;8.468;2023-04-22T15:44:48;19.50;98.20
11083;DHT22;5595;50.186;8.468;2023-04-22T15:47:15;19.40;98.30
11083;DHT22;5595;50.186;8.468;2023-04-22T15:49:42;19.50;98.40
11083;DHT22;5595;50.186;8.468;2023-04-22T15:52:11;19.50;98.30
11083;DHT22;5595;50.186;8.468;2023-04-22T15:54:38;19.40;98.30